Wiscasset, Maine
Current Conditions -  °F | °C
As of 2:53 AM on Friday 19 Dec 2014 (Local Time) from KIWI Reporting Station
Clear Clear  
Wind Chill: -1°   Ceiling: Unl
Heat Index: -1°   Visibility: 10mi
Dew Point: -5°   Wind: 0mph
Humidity: 72%   Direction: NA
Pressure: 29.82"   Gusts: NA
Location:  44°N, 69.66°W
Report Text: KIWI 190753Z AUTO 00000KT 10SM CLR M01/M05 A2982 RMK AO2 SLP099 T10061050
Loading
Personal Weather Stations






























Interactive Weather Map New forecast layout! Learn more

10-Day Weather Forecast

Advertisements
Track Severe Weather on mobile